createdAt,value
2022-10-19T00:01:57.535Z,15.43
2022-10-19T00:04:20.268Z,14.98
2022-10-19T00:06:44.176Z,15.63
2022-10-19T00:09:10.949Z,14.52
2022-10-19T00:11:35.463Z,15.25
2022-10-19T00:13:59.273Z,14.80
2022-10-19T00:16:22.788Z,14.80
2022-10-19T00:18:46.099Z,14.77
2022-10-19T00:21:10.562Z,14.55
2022-10-19T00:23:33.449Z,15.38
2022-10-19T00:25:57.001Z,14.60
2022-10-19T00:28:20.271Z,14.27
2022-10-19T00:30:42.887Z,14.82
2022-10-19T00:33:05.436Z,14.40
2022-10-19T00:35:28.093Z,13.88
2022-10-19T00:37:51.881Z,14.80
2022-10-19T00:40:15.219Z,14.90
2022-10-19T00:42:37.905Z,14.98
2022-10-19T00:45:04.893Z,15.73
2022-10-19T00:47:27.948Z,16.50
2022-10-19T00:49:50.989Z,15.63
2022-10-19T00:52:16.373Z,15.32
2022-10-19T00:54:42.144Z,15.60
2022-10-19T00:57:05.994Z,14.80
2022-10-19T00:59:31.878Z,15.50
2022-10-19T01:01:55.092Z,15.48
2022-10-19T01:04:21.327Z,15.85
2022-10-19T01:06:44.124Z,14.75
2022-10-19T01:09:07.279Z,14.70
2022-10-19T01:11:55.670Z,13.50
2022-10-19T01:14:50.535Z,14.25
2022-10-19T01:17:18.732Z,13.80
2022-10-19T01:20:02.872Z,13.85
2022-10-19T01:22:49.947Z,13.25
2022-10-19T01:25:43.119Z,12.95
2022-10-19T01:28:29.069Z,12.80
2022-10-19T01:31:26.819Z,13.02
2022-10-19T01:34:06.036Z,12.75
2022-10-19T01:36:57.429Z,12.55
2022-10-19T01:40:04.248Z,12.07
2022-10-19T01:42:40.727Z,12.20
2022-10-19T01:45:15.487Z,11.85
2022-10-19T01:48:02.214Z,12.10
2022-10-19T01:50:35.231Z,11.52
2022-10-19T01:52:59.799Z,12.35
2022-10-19T01:55:24.182Z,12.60
2022-10-19T01:57:51.166Z,12.48
2022-10-19T02:00:15.947Z,11.82
2022-10-19T02:02:43.785Z,11.13
2022-10-19T02:05:08.458Z,12.00
2022-10-19T02:07:31.981Z,12.00
2022-10-19T02:09:55.910Z,11.75
2022-10-19T02:12:20.168Z,11.75
2022-10-19T02:14:52.011Z,11.70
2022-10-19T02:17:19.576Z,12.35
2022-10-19T02:19:42.732Z,12.18
2022-10-19T02:22:06.083Z,12.40
2022-10-19T02:24:28.584Z,12.10
2022-10-19T02:26:52.075Z,12.02
2022-10-19T02:29:16.077Z,11.63
2022-10-19T02:31:38.851Z,12.27
2022-10-19T02:34:02.006Z,13.30
2022-10-19T02:36:25.277Z,12.23
2022-10-19T02:38:48.070Z,12.50
2022-10-19T02:41:36.690Z,12.88
2022-10-19T02:44:16.900Z,12.48
2022-10-19T02:46:46.304Z,13.27
2022-10-19T02:49:10.822Z,12.50
2022-10-19T02:51:39.309Z,13.55
2022-10-19T02:54:05.217Z,12.90
2022-10-19T02:56:28.443Z,13.30
2022-10-19T02:58:51.040Z,13.27
2022-10-19T03:01:14.755Z,13.43
2022-10-19T03:03:37.757Z,13.20
2022-10-19T03:06:00.626Z,13.23
2022-10-19T03:08:23.248Z,13.35
2022-10-19T03:10:46.002Z,13.23
2022-10-19T03:13:08.715Z,13.32
2022-10-19T03:15:31.413Z,13.52
2022-10-19T03:17:54.681Z,13.15
2022-10-19T03:20:17.557Z,13.80
2022-10-19T03:22:40.088Z,13.85
2022-10-19T03:25:03.342Z,14.70
2022-10-19T03:27:26.284Z,13.93
2022-10-19T03:29:50.532Z,14.18
2022-10-19T03:32:13.103Z,15.15
2022-10-19T03:34:36.055Z,15.27
2022-10-19T03:36:59.361Z,15.10
2022-10-19T03:39:22.455Z,14.98
2022-10-19T03:41:45.240Z,15.30
2022-10-19T03:44:09.229Z,15.80
2022-10-19T03:46:31.986Z,14.23
2022-10-19T03:48:55.151Z,15.23
2022-10-19T03:51:23.778Z,14.68
2022-10-19T03:53:46.929Z,15.13
2022-10-19T03:56:18.282Z,16.40
2022-10-19T03:58:42.271Z,15.95
2022-10-19T04:01:11.685Z,15.57
2022-10-19T04:06:05.299Z,14.95
2022-10-19T04:08:28.106Z,15.50
2022-10-19T04:10:50.664Z,14.95
2022-10-19T04:13:13.681Z,14.93
2022-10-19T04:15:36.603Z,15.15
2022-10-19T04:17:59.187Z,15.75
2022-10-19T04:20:22.604Z,16.00
2022-10-19T04:22:45.267Z,15.95
2022-10-19T04:25:10.303Z,16.00
2022-10-19T04:27:33.220Z,15.80
2022-10-19T04:29:55.973Z,15.55
2022-10-19T04:32:18.587Z,14.93
2022-10-19T04:34:41.018Z,14.75
2022-10-19T04:37:03.712Z,15.13
2022-10-19T04:39:26.623Z,15.35
2022-10-19T04:41:49.268Z,15.32
2022-10-19T04:44:11.850Z,15.18
2022-10-19T04:46:35.093Z,15.43
2022-10-19T04:48:59.149Z,16.00
2022-10-19T04:51:22.837Z,15.93
2022-10-19T04:53:46.079Z,14.98
2022-10-19T04:56:21.620Z,15.73
2022-10-19T04:58:44.738Z,14.75
2022-10-19T05:01:17.935Z,15.40
2022-10-19T05:03:41.137Z,14.32
2022-10-19T05:06:04.833Z,15.18
2022-10-19T05:08:27.325Z,15.35
2022-10-19T05:10:49.884Z,15.60
2022-10-19T05:13:12.572Z,16.33
2022-10-19T05:15:35.219Z,16.35
2022-10-19T05:17:58.012Z,16.48
2022-10-19T05:20:21.340Z,16.10
2022-10-19T05:22:44.213Z,16.48
2022-10-19T05:25:07.846Z,17.60
2022-10-19T05:27:30.784Z,15.80
2022-10-19T05:29:55.930Z,15.02
2022-10-19T05:32:18.557Z,14.50
2022-10-19T05:34:41.978Z,14.73
2022-10-19T05:37:04.566Z,14.77
2022-10-19T05:39:27.381Z,14.02
2022-10-19T05:41:50.601Z,14.15
2022-10-19T05:44:24.130Z,15.77
2022-10-19T05:46:47.571Z,16.17
2022-10-19T05:49:11.878Z,14.38
2022-10-19T05:51:34.608Z,14.93
2022-10-19T05:53:57.460Z,17.75
2022-10-19T05:56:22.511Z,16.05
2022-10-19T05:58:45.538Z,15.75
2022-10-19T06:01:09.572Z,14.80
2022-10-19T06:03:32.377Z,14.57
2022-10-19T06:05:55.821Z,14.80
2022-10-19T06:08:19.809Z,14.23
2022-10-19T06:10:43.377Z,13.68
2022-10-19T06:13:05.980Z,14.18
2022-10-19T06:15:28.794Z,14.23
2022-10-19T06:17:51.392Z,14.23
2022-10-19T06:20:16.454Z,14.85
2022-10-19T06:22:39.347Z,14.20
2022-10-19T06:25:02.153Z,14.00
2022-10-19T06:27:24.821Z,14.00
2022-10-19T06:29:47.727Z,14.13
2022-10-19T06:32:10.385Z,13.27
2022-10-19T06:34:33.177Z,13.40
2022-10-19T06:36:56.139Z,13.80
2022-10-19T06:39:19.037Z,13.63
2022-10-19T06:41:41.868Z,13.55
2022-10-19T06:44:30.463Z,13.32
2022-10-19T06:46:53.256Z,13.60
2022-10-19T06:49:16.147Z,12.95
2022-10-19T06:51:40.646Z,13.52
2022-10-19T06:54:03.230Z,13.00
2022-10-19T06:56:26.867Z,12.95
2022-10-19T06:58:50.036Z,12.27
2022-10-19T07:01:14.159Z,12.82
2022-10-19T07:03:37.305Z,12.93
2022-10-19T07:06:02.760Z,13.45
2022-10-19T07:08:27.834Z,13.35
2022-10-19T07:10:54.664Z,12.80
2022-10-19T07:13:17.369Z,13.20
2022-10-19T07:15:40.132Z,12.23
2022-10-19T07:18:02.860Z,12.10
2022-10-19T07:20:25.873Z,11.70
2022-10-19T07:22:48.535Z,11.48
2022-10-19T07:25:11.103Z,11.88
2022-10-19T07:27:37.866Z,11.55
2022-10-19T07:30:03.494Z,11.45
2022-10-19T07:32:26.126Z,10.95
2022-10-19T07:34:49.303Z,10.73
2022-10-19T07:37:11.970Z,10.88
2022-10-19T07:39:34.654Z,10.27
2022-10-19T07:41:57.814Z,10.50
2022-10-19T07:44:20.655Z,11.45
2022-10-19T07:46:43.511Z,10.93
2022-10-19T07:49:12.089Z,11.60
2022-10-19T07:51:34.824Z,11.10
2022-10-19T07:53:59.593Z,11.68
2022-10-19T07:56:24.541Z,12.07
2022-10-19T07:58:49.080Z,11.88
2022-10-19T08:01:17.247Z,10.32
2022-10-19T08:04:37.619Z,9.77
2022-10-19T08:06:24.489Z,10.13
2022-10-19T08:08:48.993Z,10.55
2022-10-19T08:11:23.876Z,10.15
2022-10-19T08:13:47.108Z,9.73
2022-10-19T08:16:40.447Z,9.23
2022-10-19T08:19:11.397Z,9.18
2022-10-19T08:21:34.824Z,9.85
2022-10-19T08:23:57.771Z,8.48
2022-10-19T08:26:21.538Z,8.48
2022-10-19T08:28:44.365Z,8.23
2022-10-19T08:31:15.673Z,8.50
2022-10-19T08:33:38.522Z,9.05
2022-10-19T08:36:05.033Z,8.13
2022-10-19T08:38:28.151Z,8.20
2022-10-19T08:40:51.016Z,7.78
2022-10-19T08:43:26.055Z,7.93
2022-10-19T08:46:30.214Z,8.63
2022-10-19T08:48:53.217Z,8.30
2022-10-19T08:51:15.941Z,8.65
2022-10-19T08:53:50.172Z,8.77
2022-10-19T08:56:51.682Z,8.90
2022-10-19T08:59:55.492Z,8.45
2022-10-19T09:02:21.682Z,7.50
2022-10-19T09:04:55.203Z,7.30
2022-10-19T09:07:23.701Z,6.80
2022-10-19T09:09:53.503Z,6.57
2022-10-19T09:12:20.619Z,6.70
2022-10-19T09:14:56.262Z,6.40
2022-10-19T09:17:18.972Z,6.32
2022-10-19T09:19:42.150Z,5.85
2022-10-19T09:22:15.072Z,5.53
2022-10-19T09:24:48.975Z,5.22
2022-10-19T09:27:25.668Z,5.10
2022-10-19T09:29:55.408Z,4.65
2022-10-19T09:32:25.770Z,4.22
2022-10-19T09:34:56.821Z,4.35
2022-10-19T09:37:26.057Z,4.35
2022-10-19T09:39:56.201Z,4.45
2022-10-19T09:42:30.602Z,4.47
2022-10-19T09:44:55.435Z,4.65
2022-10-19T09:47:23.674Z,4.22
2022-10-19T09:49:49.028Z,3.90
2022-10-19T09:52:32.873Z,4.03
2022-10-19T09:55:04.708Z,4.18
2022-10-19T09:57:27.400Z,3.45
2022-10-19T09:59:55.380Z,3.05
2022-10-19T10:02:31.286Z,3.10
2022-10-19T10:05:05.826Z,2.45
2022-10-19T10:07:35.637Z,2.70
2022-10-19T10:10:00.911Z,2.58
2022-10-19T10:12:24.067Z,2.60
2022-10-19T10:14:49.289Z,2.90
2022-10-19T10:17:19.388Z,2.65
2022-10-19T10:20:18.872Z,2.40
2022-10-19T10:22:52.664Z,2.33
2022-10-19T10:25:19.052Z,2.45
2022-10-19T10:27:42.160Z,2.63
2022-10-19T10:30:09.362Z,2.75
2022-10-19T10:32:32.353Z,3.17
2022-10-19T10:35:02.758Z,2.90
2022-10-19T10:37:34.694Z,2.63
2022-10-19T10:40:01.935Z,2.70
2022-10-19T10:42:55.196Z,3.30
2022-10-19T10:45:37.415Z,2.90
2022-10-19T10:48:22.633Z,3.33
2022-10-19T10:50:45.634Z,3.65
2022-10-19T10:53:31.985Z,3.05
2022-10-19T10:55:57.914Z,2.38
2022-10-19T10:59:01.869Z,2.40
2022-10-19T11:01:31.121Z,3.00
2022-10-19T11:04:04.432Z,2.65
2022-10-19T11:06:27.806Z,2.47
2022-10-19T11:09:20.100Z,2.15
2022-10-19T11:11:46.532Z,1.90
2022-10-19T11:14:38.854Z,1.50
2022-10-19T11:17:07.663Z,1.55
2022-10-19T11:19:42.169Z,1.60
2022-10-19T11:22:29.171Z,2.03
2022-10-19T11:25:06.714Z,1.80
2022-10-19T11:28:15.510Z,2.40
2022-10-19T11:31:08.990Z,2.00
2022-10-19T11:33:56.371Z,2.25
2022-10-19T11:36:59.355Z,2.25
2022-10-19T11:39:50.180Z,2.08
2022-10-19T11:42:45.024Z,2.40
2022-10-19T11:45:24.442Z,1.95
2022-10-19T11:48:25.223Z,2.20
2022-10-19T11:50:58.985Z,2.13
2022-10-19T11:53:59.487Z,2.20
2022-10-19T11:56:44.841Z,2.20
2022-10-19T11:59:39.957Z,2.00
2022-10-19T12:02:13.465Z,2.00
2022-10-19T12:04:42.104Z,1.90
2022-10-19T12:07:16.485Z,1.80
2022-10-19T12:10:25.660Z,2.00
2022-10-19T12:12:52.671Z,1.95
2022-10-19T12:15:39.707Z,1.90
2022-10-19T12:18:11.034Z,1.52
2022-10-19T12:20:47.086Z,2.00
2022-10-19T12:23:31.647Z,2.08
2022-10-19T12:25:57.426Z,1.77
2022-10-19T12:28:28.307Z,1.90
2022-10-19T12:30:55.646Z,1.48
2022-10-19T12:33:46.552Z,1.45
2022-10-19T12:36:31.085Z,1.60
2022-10-19T12:39:01.577Z,1.42
2022-10-19T12:41:52.566Z,1.83
2022-10-19T12:44:56.252Z,1.90
2022-10-19T12:47:23.216Z,2.13
2022-10-19T12:49:48.969Z,1.80
2022-10-19T12:52:14.227Z,1.80
2022-10-19T12:54:39.351Z,2.00
2022-10-19T12:57:04.323Z,1.80
2022-10-19T12:59:32.723Z,2.13
2022-10-19T13:01:57.129Z,2.03
2022-10-19T13:04:23.227Z,2.22
2022-10-19T13:06:58.035Z,1.90
2022-10-19T13:09:41.902Z,2.05
2022-10-19T13:12:21.349Z,2.20
2022-10-19T13:14:47.845Z,2.78
2022-10-19T13:17:34.017Z,1.98
2022-10-19T13:20:14.521Z,2.30
2022-10-19T13:22:37.628Z,2.22
2022-10-19T13:25:23.841Z,2.28
2022-10-19T13:27:48.049Z,2.15
2022-10-19T13:30:38.309Z,2.40
2022-10-19T13:33:19.609Z,2.10
2022-10-19T13:35:42.224Z,2.42
2022-10-19T13:38:16.818Z,2.15
2022-10-19T13:40:49.625Z,2.60
2022-10-19T13:43:24.554Z,2.40
2022-10-19T13:46:18.729Z,2.65
2022-10-19T13:49:18.599Z,3.13
2022-10-19T13:52:05.746Z,2.78
2022-10-19T13:54:59.149Z,2.85
2022-10-19T13:57:32.212Z,2.80
2022-10-19T14:00:12.976Z,2.72
2022-10-19T14:02:54.794Z,2.90
2022-10-19T14:05:47.693Z,2.85
2022-10-19T14:08:40.799Z,2.90
2022-10-19T14:11:17.330Z,3.17
2022-10-19T14:13:39.950Z,3.05
2022-10-19T14:16:03.149Z,3.20
2022-10-19T14:18:36.342Z,3.25
2022-10-19T14:21:01.471Z,3.30
2022-10-19T14:23:28.440Z,3.53
2022-10-19T14:25:53.357Z,3.35
2022-10-19T14:28:17.281Z,3.63
2022-10-19T14:30:44.197Z,3.47
2022-10-19T14:33:09.996Z,3.13
2022-10-19T14:35:41.335Z,2.92
2022-10-19T14:38:09.006Z,3.55
2022-10-19T14:40:38.266Z,3.22
2022-10-19T14:43:01.964Z,3.10
2022-10-19T14:45:30.400Z,3.60
2022-10-19T14:48:02.147Z,4.07
2022-10-19T14:53:47.591Z,4.03
2022-10-19T14:56:21.954Z,3.78
2022-10-19T14:58:51.788Z,3.58
2022-10-19T15:01:17.563Z,3.80
2022-10-19T15:03:44.367Z,3.85
2022-10-19T15:06:07.396Z,3.33
2022-10-19T15:08:43.994Z,4.35
2022-10-19T15:11:08.978Z,3.70
2022-10-19T15:13:41.499Z,4.10
2022-10-19T15:16:04.340Z,3.92
2022-10-19T15:18:48.297Z,3.90
2022-10-19T15:21:18.941Z,3.78
2022-10-19T15:24:09.066Z,4.22
2022-10-19T15:26:31.912Z,4.05
2022-10-19T15:29:07.418Z,3.75
2022-10-19T15:31:30.392Z,4.10
2022-10-19T15:34:02.049Z,3.95
2022-10-19T15:36:25.530Z,3.70
2022-10-19T15:39:11.371Z,3.90
2022-10-19T15:41:41.769Z,4.10
2022-10-19T15:44:27.702Z,3.67
2022-10-19T15:46:50.281Z,4.18
2022-10-19T15:49:16.072Z,3.97
2022-10-19T15:51:51.455Z,4.10
2022-10-19T15:54:19.158Z,3.90
2022-10-19T15:56:42.411Z,3.88
2022-10-19T15:59:10.664Z,4.13
2022-10-19T16:01:34.248Z,3.88
2022-10-19T16:03:57.278Z,4.35
2022-10-19T16:06:21.793Z,3.60
2022-10-19T16:08:46.329Z,4.45
2022-10-19T16:11:16.419Z,4.03
2022-10-19T16:13:39.045Z,3.97
2022-10-19T16:16:10.793Z,4.20
2022-10-19T16:18:34.023Z,4.40
2022-10-19T16:20:56.678Z,4.30
2022-10-19T16:25:47.046Z,4.78
2022-10-19T16:28:09.765Z,4.95
2022-10-19T16:30:32.630Z,5.20
2022-10-19T16:32:55.444Z,5.20
2022-10-19T16:35:18.017Z,4.50
2022-10-19T16:37:40.846Z,4.75
2022-10-19T16:40:05.287Z,4.45
2022-10-19T16:42:30.598Z,4.47
2022-10-19T16:44:54.415Z,3.92
2022-10-19T16:47:18.961Z,3.95
2022-10-19T16:49:43.058Z,3.90
2022-10-19T16:52:06.599Z,3.90
2022-10-19T16:54:30.187Z,3.60
2022-10-19T16:56:53.440Z,3.90
2022-10-19T16:59:18.524Z,3.55
2022-10-19T17:01:43.933Z,3.67
2022-10-19T17:04:07.081Z,4.03
2022-10-19T17:06:29.575Z,4.07
2022-10-19T17:09:23.676Z,3.70
2022-10-19T17:11:38.336Z,4.05
2022-10-19T17:14:04.258Z,5.03
2022-10-19T17:16:28.392Z,5.75
2022-10-19T17:18:53.830Z,4.25
2022-10-19T17:21:20.067Z,4.13
2022-10-19T17:23:43.856Z,3.70
2022-10-19T17:26:08.141Z,4.00
2022-10-19T17:28:38.377Z,4.00
2022-10-19T17:31:09.703Z,4.20
2022-10-19T17:33:32.566Z,4.28
2022-10-19T17:35:55.321Z,4.22
2022-10-19T17:38:19.488Z,4.05
2022-10-19T17:40:42.372Z,4.00
2022-10-19T17:43:05.177Z,4.32
2022-10-19T17:45:28.137Z,4.35
2022-10-19T17:47:51.358Z,4.30
2022-10-19T17:50:15.724Z,4.30
2022-10-19T17:52:39.046Z,4.78
2022-10-19T17:55:12.019Z,4.57
2022-10-19T17:57:36.329Z,4.30
2022-10-19T18:00:00.656Z,4.65
2022-10-19T18:02:23.476Z,4.80
2022-10-19T18:04:46.643Z,4.65
2022-10-19T18:07:09.522Z,4.43
2022-10-19T18:09:32.635Z,4.28
2022-10-19T18:11:55.734Z,4.45
2022-10-19T18:14:18.715Z,4.55
2022-10-19T18:16:45.576Z,5.00
2022-10-19T18:19:08.663Z,4.97
2022-10-19T18:21:38.697Z,4.57
2022-10-19T18:24:03.026Z,4.55
2022-10-19T18:26:29.457Z,4.53
2022-10-19T18:28:53.514Z,4.85
2022-10-19T18:31:22.536Z,4.35
2022-10-19T18:33:46.585Z,4.50
2022-10-19T18:36:10.811Z,4.35
2022-10-19T18:38:34.271Z,4.20
2022-10-19T18:41:02.093Z,4.03
2022-10-19T18:43:25.024Z,4.53
2022-10-19T18:45:56.481Z,4.43
2022-10-19T18:48:19.475Z,4.60
2022-10-19T18:50:42.596Z,4.60
2022-10-19T18:53:05.625Z,4.50
2022-10-19T18:55:28.981Z,4.65
2022-10-19T18:57:52.363Z,4.75
2022-10-19T19:00:15.469Z,4.88
2022-10-19T19:02:46.611Z,4.57
2022-10-19T19:05:10.691Z,4.20
2022-10-19T19:07:33.536Z,4.40
2022-10-19T19:09:56.497Z,4.38
2022-10-19T19:12:19.378Z,4.60
2022-10-19T19:14:43.936Z,4.30
2022-10-19T19:17:06.680Z,4.40
2022-10-19T19:19:29.991Z,4.13
2022-10-19T19:21:53.375Z,4.15
2022-10-19T19:24:19.147Z,4.30
2022-10-19T19:26:46.796Z,4.50
2022-10-19T19:29:09.829Z,4.07
2022-10-19T19:31:32.911Z,4.55
2022-10-19T19:33:56.412Z,4.10
2022-10-19T19:36:19.783Z,4.18
2022-10-19T19:38:43.546Z,4.55
2022-10-19T19:41:08.433Z,4.07
2022-10-19T19:43:33.757Z,4.15
2022-10-19T19:46:04.766Z,4.78
2022-10-19T19:48:31.224Z,4.10
2022-10-19T19:50:54.133Z,4.10
2022-10-19T19:53:17.124Z,4.72
2022-10-19T19:55:39.829Z,4.20
2022-10-19T19:58:03.129Z,3.92
2022-10-19T20:00:26.280Z,4.28
2022-10-19T20:02:56.867Z,4.35
2022-10-19T20:05:20.687Z,4.28
2022-10-19T20:07:43.566Z,5.00
2022-10-19T20:10:06.900Z,4.70
2022-10-19T20:12:31.390Z,5.20
2022-10-19T20:14:54.268Z,5.17
2022-10-19T20:17:17.119Z,5.38
2022-10-19T20:19:41.939Z,5.30
2022-10-19T20:22:06.290Z,4.72
2022-10-19T20:24:29.763Z,4.75
2022-10-19T20:26:54.476Z,4.80
2022-10-19T20:29:18.492Z,4.57
2022-10-19T20:31:42.220Z,4.88
2022-10-19T20:34:10.876Z,4.55
2022-10-19T20:36:35.491Z,4.50
2022-10-19T20:38:59.222Z,4.10
2022-10-19T20:41:25.733Z,4.40
2022-10-19T20:43:49.127Z,4.45
2022-10-19T20:46:17.917Z,3.88
2022-10-19T20:48:40.872Z,4.07
2022-10-19T20:51:14.204Z,4.30
2022-10-19T20:53:37.251Z,3.85
2022-10-19T20:56:07.305Z,4.35
2022-10-19T20:58:30.269Z,4.18
2022-10-19T21:00:52.987Z,4.72
2022-10-19T21:03:15.688Z,4.80
2022-10-19T21:05:38.539Z,4.28
2022-10-19T21:08:01.223Z,4.22
2022-10-19T21:10:23.712Z,4.57
2022-10-19T21:12:46.315Z,4.15
2022-10-19T21:15:14.688Z,4.22
2022-10-19T21:17:37.148Z,4.30
2022-10-19T21:20:00.011Z,4.50
2022-10-19T21:22:22.669Z,4.22
2022-10-19T21:24:45.224Z,4.30
2022-10-19T21:27:09.318Z,4.00
2022-10-19T21:29:32.258Z,4.00
2022-10-19T21:31:54.945Z,4.57
2022-10-19T21:34:20.705Z,3.85
2022-10-19T21:36:43.477Z,3.85
2022-10-19T21:39:06.395Z,4.37
2022-10-19T21:41:29.212Z,4.20
2022-10-19T21:43:51.771Z,4.15
2022-10-19T21:46:16.746Z,4.50
2022-10-19T21:48:40.072Z,3.92
2022-10-19T21:51:36.045Z,4.00
2022-10-19T21:53:58.743Z,3.80
2022-10-19T21:56:21.249Z,4.10
2022-10-19T21:58:49.445Z,4.15
2022-10-19T22:01:12.628Z,4.28
2022-10-19T22:03:35.207Z,3.97
2022-10-19T22:05:57.728Z,4.68
2022-10-19T22:08:20.529Z,4.03
2022-10-19T22:10:43.093Z,4.20
2022-10-19T22:13:05.826Z,4.10
2022-10-19T22:15:28.417Z,3.80
2022-10-19T22:17:51.875Z,3.92
2022-10-19T22:20:15.808Z,4.03
2022-10-19T22:22:38.602Z,4.18
2022-10-19T22:25:01.364Z,3.78
2022-10-19T22:27:23.982Z,3.93
2022-10-19T22:29:53.242Z,3.60
2022-10-19T22:32:15.787Z,3.90
2022-10-19T22:34:39.214Z,3.70
2022-10-19T22:37:02.120Z,3.63
2022-10-19T22:39:27.778Z,3.83
2022-10-19T22:41:50.641Z,3.60
2022-10-19T22:44:31.858Z,3.90
2022-10-19T22:46:54.447Z,3.08
2022-10-19T22:49:17.807Z,3.47
2022-10-19T22:51:40.458Z,3.67
2022-10-19T22:54:03.174Z,3.33
2022-10-19T22:56:25.826Z,3.50
2022-10-19T22:58:48.825Z,3.67
2022-10-19T23:01:13.686Z,3.88
2022-10-19T23:03:36.207Z,3.70
2022-10-19T23:05:59.296Z,3.38
2022-10-19T23:08:21.934Z,3.40
2022-10-19T23:10:44.575Z,3.40
2022-10-19T23:13:07.276Z,3.40
2022-10-19T23:15:29.898Z,3.25
2022-10-19T23:17:52.476Z,3.20
2022-10-19T23:20:16.268Z,3.17
2022-10-19T23:22:39.193Z,3.28
2022-10-19T23:25:01.817Z,3.20
2022-10-19T23:27:24.482Z,3.47
2022-10-19T23:29:54.193Z,3.40
2022-10-19T23:32:16.731Z,3.40
2022-10-19T23:34:41.065Z,3.50
2022-10-19T23:37:06.067Z,3.22
2022-10-19T23:39:28.609Z,3.33
2022-10-19T23:41:51.200Z,3.55
2022-10-19T23:44:13.969Z,3.53
2022-10-19T23:46:36.401Z,2.92
2022-10-19T23:48:59.058Z,3.10
2022-10-19T23:51:22.840Z,3.10
2022-10-19T23:53:49.273Z,2.70
2022-10-19T23:56:15.892Z,3.20
2022-10-19T23:58:38.541Z,2.83
